createdAt,value
2019-03-21T00:02:11.534Z,7.12
2019-03-21T00:04:44.111Z,6.90
2019-03-21T00:07:16.088Z,7.03
2019-03-21T00:10:16.599Z,6.22
2019-03-21T00:12:49.095Z,7.30
2019-03-21T00:15:32.062Z,6.00
2019-03-21T00:18:09.757Z,6.33
2019-03-21T00:20:41.858Z,5.80
2019-03-21T00:23:14.045Z,6.10
2019-03-21T00:25:46.107Z,6.55
2019-03-21T00:28:18.329Z,6.40
2019-03-21T00:30:50.298Z,6.10
2019-03-21T00:33:22.658Z,6.50
2019-03-21T00:35:55.091Z,6.72
2019-03-21T00:38:27.745Z,7.10
2019-03-21T00:40:59.694Z,5.95
2019-03-21T00:43:31.691Z,7.28
2019-03-21T00:46:03.834Z,6.60
2019-03-21T00:48:35.959Z,7.72
2019-03-21T00:51:08.107Z,6.87
2019-03-21T00:53:40.748Z,6.50
2019-03-21T00:56:12.587Z,6.92
2019-03-21T00:58:44.976Z,7.42
2019-03-21T01:01:17.144Z,7.03
2019-03-21T01:03:49.785Z,6.05
2019-03-21T01:06:21.983Z,7.22
2019-03-21T01:08:54.053Z,7.30
2019-03-21T01:11:27.156Z,6.78
2019-03-21T01:13:59.074Z,6.78
2019-03-21T01:16:31.144Z,7.03
2019-03-21T01:19:03.306Z,7.40
2019-03-21T01:21:36.491Z,7.30
2019-03-21T01:24:10.059Z,6.83
2019-03-21T01:26:42.000Z,7.70
2019-03-21T01:29:14.287Z,7.55
2019-03-21T01:31:46.441Z,7.25
2019-03-21T01:34:18.447Z,7.42
2019-03-21T01:36:50.501Z,7.20
2019-03-21T01:39:22.375Z,7.70
2019-03-21T01:41:54.487Z,7.22
2019-03-21T01:44:27.491Z,7.97
2019-03-21T01:46:59.617Z,8.50
2019-03-21T01:49:31.823Z,8.05
2019-03-21T01:52:03.705Z,8.63
2019-03-21T01:54:37.113Z,7.62
2019-03-21T01:57:08.986Z,8.00
2019-03-21T01:59:41.391Z,8.00
2019-03-21T02:02:13.474Z,8.28
2019-03-21T02:04:45.556Z,8.80
2019-03-21T02:07:17.537Z,8.50
2019-03-21T02:09:49.544Z,8.20
2019-03-21T02:12:23.645Z,8.45
2019-03-21T02:14:56.036Z,8.53
2019-03-21T02:17:27.980Z,8.80
2019-03-21T02:20:00.337Z,9.30
2019-03-21T02:22:32.704Z,8.65
2019-03-21T02:25:05.183Z,8.18
2019-03-21T02:27:37.533Z,9.78
2019-03-21T02:30:12.118Z,10.25
2019-03-21T02:32:44.186Z,9.08
2019-03-21T02:35:16.097Z,8.58
2019-03-21T02:37:48.944Z,8.73
2019-03-21T02:40:21.997Z,8.65
2019-03-21T02:42:54.219Z,9.25
2019-03-21T02:45:26.243Z,8.33
2019-03-21T02:47:58.202Z,8.95
2019-03-21T02:50:32.373Z,8.25
2019-03-21T02:53:04.566Z,8.10
2019-03-21T02:55:36.586Z,8.78
2019-03-21T02:58:08.711Z,9.68
2019-03-21T03:00:40.567Z,8.58
2019-03-21T03:03:12.645Z,9.65
2019-03-21T03:05:45.002Z,8.70
2019-03-21T03:08:16.960Z,8.80
2019-03-21T03:10:50.709Z,8.38
2019-03-21T03:13:23.008Z,9.33
2019-03-21T03:15:55.186Z,9.38
2019-03-21T03:18:27.321Z,9.03
2019-03-21T03:21:00.802Z,10.00
2019-03-21T03:23:32.996Z,8.98
2019-03-21T03:26:04.960Z,8.88
2019-03-21T03:28:37.118Z,9.35
2019-03-21T03:31:09.468Z,8.75
2019-03-21T03:33:41.681Z,9.15
2019-03-21T03:36:13.878Z,8.95
2019-03-21T03:38:46.118Z,9.05
2019-03-21T03:41:18.104Z,8.85
2019-03-21T03:43:50.182Z,9.20
2019-03-21T03:46:22.727Z,10.03
2019-03-21T03:48:54.563Z,8.70
2019-03-21T03:51:26.719Z,8.98
2019-03-21T03:53:59.900Z,10.20
2019-03-21T03:56:32.134Z,10.53
2019-03-21T03:59:04.690Z,8.50
2019-03-21T04:01:36.962Z,9.05
2019-03-21T04:04:09.176Z,9.03
2019-03-21T04:06:41.356Z,8.35
2019-03-21T04:09:13.159Z,9.48
2019-03-21T04:11:45.189Z,9.85
2019-03-21T04:14:17.525Z,9.83
2019-03-21T04:16:49.759Z,9.05
2019-03-21T04:19:22.010Z,9.33
2019-03-21T04:21:53.979Z,9.23
2019-03-21T04:24:25.832Z,9.05
2019-03-21T04:26:58.072Z,9.10
2019-03-21T04:29:30.287Z,9.30
2019-03-21T04:32:02.486Z,9.20
2019-03-21T04:34:34.472Z,9.55
2019-03-21T04:37:06.638Z,8.50
2019-03-21T04:39:38.896Z,8.75
2019-03-21T04:42:11.312Z,8.20
2019-03-21T04:44:44.491Z,8.68
2019-03-21T04:47:16.719Z,8.38
2019-03-21T04:49:50.074Z,7.67
2019-03-21T04:52:22.462Z,7.80
2019-03-21T04:54:54.738Z,8.20
2019-03-21T04:57:27.080Z,8.93
2019-03-21T05:00:00.049Z,8.43
2019-03-21T05:02:32.206Z,8.45
2019-03-21T05:05:04.201Z,7.70
2019-03-21T05:07:36.420Z,8.15
2019-03-21T05:10:10.075Z,8.43
2019-03-21T05:12:42.283Z,7.65
2019-03-21T05:15:16.782Z,8.10
2019-03-21T05:17:49.633Z,7.25
2019-03-21T05:20:23.985Z,7.85
2019-03-21T05:22:56.260Z,7.00
2019-03-21T05:25:28.533Z,6.95
2019-03-21T05:28:00.444Z,7.05
2019-03-21T05:30:35.803Z,7.00
2019-03-21T05:33:07.621Z,7.72
2019-03-21T05:35:39.862Z,7.28
2019-03-21T05:38:11.953Z,6.65
2019-03-21T05:40:44.098Z,6.87
2019-03-21T05:43:19.091Z,7.12
2019-03-21T05:45:51.259Z,7.20
2019-03-21T05:48:23.583Z,6.62
2019-03-21T05:50:55.699Z,7.50
2019-03-21T05:53:27.896Z,6.22
2019-03-21T05:56:00.293Z,5.92
2019-03-21T05:58:32.652Z,6.65
2019-03-21T06:01:04.931Z,6.10
2019-03-21T06:03:49.998Z,6.30
2019-03-21T06:06:33.506Z,6.72
2019-03-21T06:09:08.465Z,5.10
2019-03-21T06:11:41.804Z,5.42
2019-03-21T06:14:13.859Z,5.60
2019-03-21T06:16:45.981Z,4.42
2019-03-21T06:20:06.943Z,6.08
2019-03-21T06:23:03.759Z,4.25
2019-03-21T06:25:56.937Z,5.55
2019-03-21T06:28:28.853Z,4.75
2019-03-21T06:31:00.958Z,5.12
2019-03-21T06:33:32.841Z,5.22
2019-03-21T06:36:05.143Z,5.17
2019-03-21T06:38:37.042Z,5.45
2019-03-21T06:41:09.326Z,5.08
2019-03-21T06:43:41.306Z,4.78
2019-03-21T06:46:13.495Z,4.90
2019-03-21T06:48:45.877Z,5.08
2019-03-21T06:51:18.844Z,5.05
2019-03-21T06:53:50.903Z,4.78
2019-03-21T06:56:23.162Z,4.62
2019-03-21T06:58:55.336Z,4.12
2019-03-21T07:01:27.378Z,4.80
2019-03-21T07:04:06.929Z,4.37
2019-03-21T07:06:33.152Z,4.58
2019-03-21T07:09:07.055Z,3.87
2019-03-21T07:11:38.959Z,3.98
2019-03-21T07:14:10.927Z,4.35
2019-03-21T07:16:42.773Z,3.55
2019-03-21T07:19:14.603Z,3.77
2019-03-21T07:21:46.510Z,3.98
2019-03-21T07:24:18.651Z,3.67
2019-03-21T07:26:50.833Z,3.95
2019-03-21T07:29:23.084Z,3.33
2019-03-21T07:31:55.153Z,3.33
2019-03-21T07:34:29.224Z,3.33
2019-03-21T07:37:01.180Z,3.17
2019-03-21T07:39:33.174Z,4.28
2019-03-21T07:42:05.422Z,3.40
2019-03-21T07:44:37.575Z,3.22
2019-03-21T07:47:13.019Z,3.77
2019-03-21T07:49:43.227Z,5.05
2019-03-21T07:52:15.248Z,3.80
2019-03-21T07:54:47.446Z,4.53
2019-03-21T07:57:19.298Z,4.08
2019-03-21T07:59:51.419Z,4.53
2019-03-21T08:02:24.539Z,3.83
2019-03-21T08:04:56.631Z,3.95
2019-03-21T08:07:28.910Z,3.50
2019-03-21T08:10:01.140Z,3.10
2019-03-21T08:12:34.311Z,3.67
2019-03-21T08:15:07.687Z,4.00
2019-03-21T08:17:39.800Z,4.20
2019-03-21T08:20:13.195Z,3.90
2019-03-21T08:22:45.619Z,4.80
2019-03-21T08:25:17.679Z,4.05
2019-03-21T08:27:51.803Z,3.35
2019-03-21T08:30:32.841Z,3.65
2019-03-21T08:33:05.600Z,3.42
2019-03-21T08:35:37.931Z,3.77
2019-03-21T08:38:09.986Z,3.35
2019-03-21T08:40:42.732Z,3.08
2019-03-21T08:43:14.993Z,3.72
2019-03-21T08:45:47.110Z,3.20
2019-03-21T08:48:19.453Z,3.83
2019-03-21T08:50:51.380Z,4.62
2019-03-21T08:53:23.409Z,3.30
2019-03-21T08:55:55.581Z,3.58
2019-03-21T08:58:27.525Z,4.10
2019-03-21T09:00:59.831Z,4.25
2019-03-21T09:03:31.970Z,3.98
2019-03-21T09:06:04.167Z,3.72
2019-03-21T09:08:36.213Z,4.65
2019-03-21T09:11:08.920Z,4.90
2019-03-21T09:13:41.107Z,4.65
2019-03-21T09:16:13.184Z,4.78
2019-03-21T09:18:45.294Z,5.85
2019-03-21T09:21:19.907Z,5.53
2019-03-21T09:23:50.936Z,5.10
2019-03-21T09:26:23.271Z,5.50
2019-03-21T09:28:55.394Z,4.92
2019-03-21T09:31:29.049Z,4.40
2019-03-21T09:34:01.046Z,3.83
2019-03-21T09:36:32.975Z,4.70
2019-03-21T09:39:07.845Z,4.92
2019-03-21T09:41:40.611Z,4.28
2019-03-21T09:44:12.694Z,5.20
2019-03-21T09:46:50.722Z,5.12
2019-03-21T09:49:18.613Z,4.75
2019-03-21T09:51:50.614Z,5.75
2019-03-21T09:54:22.868Z,4.92
2019-03-21T09:56:54.831Z,4.20
2019-03-21T09:59:27.319Z,5.30
2019-03-21T10:01:59.614Z,5.55
2019-03-21T10:04:31.799Z,4.70
2019-03-21T10:07:03.983Z,6.20
2019-03-21T10:09:36.107Z,5.80
2019-03-21T10:12:08.361Z,5.65
2019-03-21T10:14:40.367Z,5.90
2019-03-21T10:17:12.515Z,5.08
2019-03-21T10:19:44.760Z,5.15
2019-03-21T10:22:16.743Z,5.55
2019-03-21T10:24:49.056Z,6.30
2019-03-21T10:27:21.195Z,5.90
2019-03-21T10:29:53.276Z,5.50
2019-03-21T10:32:25.313Z,6.37
2019-03-21T10:34:57.586Z,6.10
2019-03-21T10:37:29.766Z,5.78
2019-03-21T10:40:01.960Z,5.47
2019-03-21T10:42:33.809Z,5.25
2019-03-21T10:45:06.384Z,6.03
2019-03-21T10:47:38.748Z,5.65
2019-03-21T10:50:14.562Z,4.85
2019-03-21T10:52:47.116Z,5.20
2019-03-21T10:55:19.179Z,5.03
2019-03-21T10:57:51.801Z,4.62
2019-03-21T11:00:23.898Z,4.42
2019-03-21T11:02:56.071Z,4.95
2019-03-21T11:05:29.380Z,4.80
2019-03-21T11:08:01.541Z,5.33
2019-03-21T11:10:33.544Z,4.85
2019-03-21T11:13:06.490Z,5.10
2019-03-21T11:15:38.499Z,5.60
2019-03-21T11:18:10.691Z,4.70
2019-03-21T11:20:42.805Z,5.87
2019-03-21T11:23:15.038Z,6.53
2019-03-21T11:25:47.056Z,4.92
2019-03-21T11:28:19.473Z,5.12
2019-03-21T11:30:53.203Z,5.53
2019-03-21T11:33:25.741Z,5.17
2019-03-21T11:35:57.926Z,6.20
2019-03-21T11:38:30.046Z,5.72
2019-03-21T11:41:03.592Z,6.83
2019-03-21T11:43:35.840Z,7.37
2019-03-21T11:46:07.936Z,5.58
2019-03-21T11:48:40.225Z,5.72
2019-03-21T11:51:12.078Z,6.65
2019-03-21T11:53:44.003Z,7.20
2019-03-21T11:56:16.377Z,7.50
2019-03-21T11:58:48.557Z,6.72
2019-03-21T12:01:20.779Z,7.53
2019-03-21T12:03:52.754Z,7.28
2019-03-21T12:06:24.911Z,7.15
2019-03-21T12:08:57.214Z,6.95
2019-03-21T12:11:29.065Z,7.53
2019-03-21T12:14:01.314Z,7.90
2019-03-21T12:16:33.678Z,7.58
2019-03-21T12:19:06.009Z,7.60
2019-03-21T12:21:38.130Z,7.92
2019-03-21T12:24:11.169Z,7.70
2019-03-21T12:26:43.498Z,6.42
2019-03-21T12:29:15.791Z,6.45
2019-03-21T12:31:47.791Z,6.25
2019-03-21T12:34:19.760Z,5.80
2019-03-21T12:36:51.883Z,7.33
2019-03-21T12:39:23.955Z,7.33
2019-03-21T12:41:56.113Z,7.70
2019-03-21T12:44:28.109Z,7.25
2019-03-21T12:47:00.218Z,7.25
2019-03-21T12:49:33.562Z,9.75
2019-03-21T12:52:05.966Z,7.50
2019-03-21T12:54:38.320Z,6.10
2019-03-21T12:57:10.386Z,7.17
2019-03-21T12:59:43.758Z,7.70
2019-03-21T13:02:15.646Z,6.78
2019-03-21T13:04:47.610Z,5.50
2019-03-21T13:07:20.454Z,7.40
2019-03-21T13:09:52.557Z,6.90
2019-03-21T13:12:24.736Z,7.05
2019-03-21T13:14:56.986Z,6.40
2019-03-21T13:17:29.222Z,6.90
2019-03-21T13:20:01.288Z,5.87
2019-03-21T13:22:33.488Z,6.90
2019-03-21T13:25:05.603Z,7.12
2019-03-21T13:27:37.667Z,7.37
2019-03-21T13:30:10.852Z,7.30
2019-03-21T13:32:43.085Z,7.08
2019-03-21T13:35:15.338Z,7.35
2019-03-21T13:37:47.991Z,6.67
2019-03-21T13:40:19.946Z,6.20
2019-03-21T13:42:53.204Z,6.03
2019-03-21T13:45:25.240Z,6.00
2019-03-21T13:47:57.448Z,6.47
2019-03-21T13:50:29.806Z,5.62
2019-03-21T13:53:05.195Z,5.95
2019-03-21T13:55:35.516Z,6.37
2019-03-21T13:58:07.464Z,5.62
2019-03-21T14:00:41.066Z,5.90
2019-03-21T14:03:24.373Z,5.50
2019-03-21T14:05:47.100Z,4.95
2019-03-21T14:08:19.064Z,5.70
2019-03-21T14:10:51.302Z,5.25
2019-03-21T14:13:23.239Z,5.85
2019-03-21T14:15:57.802Z,5.85
2019-03-21T14:18:29.059Z,6.37
2019-03-21T14:21:01.062Z,5.85
2019-03-21T14:23:42.736Z,6.75
2019-03-21T14:26:08.341Z,6.30
2019-03-21T14:28:40.391Z,6.70
2019-03-21T14:31:12.642Z,6.50
2019-03-21T14:33:44.746Z,7.12
2019-03-21T14:36:16.907Z,5.78
2019-03-21T14:38:48.991Z,6.12
2019-03-21T14:41:21.148Z,6.30
2019-03-21T14:43:53.242Z,6.25
2019-03-21T14:46:25.279Z,6.03
2019-03-21T14:48:59.744Z,6.90
2019-03-21T14:51:31.972Z,6.65
2019-03-21T14:54:04.061Z,6.42
2019-03-21T14:56:36.120Z,6.37
2019-03-21T14:59:08.087Z,6.53
2019-03-21T15:01:40.877Z,7.10
2019-03-21T15:04:13.048Z,8.00
2019-03-21T15:06:45.144Z,6.25
2019-03-21T15:09:17.108Z,6.15
2019-03-21T15:11:49.348Z,6.28
2019-03-21T15:14:21.583Z,6.62
2019-03-21T15:16:53.881Z,6.22
2019-03-21T15:19:26.342Z,6.33
2019-03-21T15:21:58.523Z,7.90
2019-03-21T15:24:30.468Z,6.53
2019-03-21T15:27:02.510Z,7.42
2019-03-21T15:29:35.506Z,7.65
2019-03-21T15:32:08.347Z,7.58
2019-03-21T15:34:40.318Z,9.15
2019-03-21T15:37:12.556Z,7.45
2019-03-21T15:39:44.796Z,8.13
2019-03-21T15:42:16.877Z,8.18
2019-03-21T15:44:51.687Z,7.22
2019-03-21T15:47:23.804Z,8.88
2019-03-21T15:49:56.017Z,8.73
2019-03-21T15:52:28.503Z,8.53
2019-03-21T15:55:00.579Z,8.73
2019-03-21T15:57:34.554Z,8.03
2019-03-21T16:00:08.495Z,8.73
2019-03-21T16:02:40.583Z,8.23
2019-03-21T16:05:12.712Z,7.50
2019-03-21T16:07:44.667Z,8.05
2019-03-21T16:10:16.816Z,9.18
2019-03-21T16:12:49.244Z,8.85
2019-03-21T16:15:21.971Z,8.60
2019-03-21T16:17:54.539Z,10.70
2019-03-21T16:20:26.597Z,9.15
2019-03-21T16:23:00.335Z,8.33
2019-03-21T16:25:32.755Z,10.80
2019-03-21T16:28:04.840Z,8.15
2019-03-21T16:30:37.200Z,11.15
2019-03-21T16:33:09.569Z,8.73
2019-03-21T16:35:41.497Z,8.48
2019-03-21T16:38:13.468Z,8.35
2019-03-21T16:40:46.278Z,9.03
2019-03-21T16:43:18.458Z,9.03
2019-03-21T16:45:50.461Z,9.35
2019-03-21T16:48:23.205Z,8.55
2019-03-21T16:50:56.598Z,9.45
2019-03-21T16:53:28.870Z,9.70
2019-03-21T16:56:02.600Z,9.95
2019-03-21T16:58:34.767Z,10.43
2019-03-21T17:01:06.762Z,9.73
2019-03-21T17:03:39.223Z,9.28
2019-03-21T17:06:11.519Z,11.78
2019-03-21T17:08:43.490Z,11.80
2019-03-21T17:11:15.538Z,16.50
2019-03-21T17:13:47.593Z,25.25
2019-03-21T17:16:19.491Z,14.23
2019-03-21T17:18:51.532Z,9.55
2019-03-21T17:21:23.565Z,8.28
2019-03-21T17:23:55.746Z,8.30
2019-03-21T17:26:27.892Z,8.48
2019-03-21T17:28:59.934Z,11.03
2019-03-21T17:31:32.306Z,8.38
2019-03-21T17:34:04.713Z,9.00
2019-03-21T17:36:37.741Z,8.53
2019-03-21T17:39:10.471Z,10.03
2019-03-21T17:41:43.405Z,10.58
2019-03-21T17:44:15.665Z,11.60
2019-03-21T17:46:47.752Z,9.33
2019-03-21T17:49:19.606Z,9.40
2019-03-21T17:51:51.495Z,8.38
2019-03-21T17:54:23.636Z,9.30
2019-03-21T17:56:55.965Z,9.40
2019-03-21T17:59:28.370Z,8.53
2019-03-21T18:02:00.465Z,8.63
2019-03-21T18:04:35.667Z,8.58
2019-03-21T18:07:06.629Z,9.18
2019-03-21T18:09:39.003Z,9.30
2019-03-21T18:12:11.336Z,8.70
2019-03-21T18:14:43.725Z,7.78
2019-03-21T18:17:15.878Z,8.15
2019-03-21T18:19:48.105Z,8.80
2019-03-21T18:22:20.143Z,9.35
2019-03-21T18:24:53.999Z,8.20
2019-03-21T18:27:26.447Z,8.90
2019-03-21T18:29:58.857Z,10.00
2019-03-21T18:32:30.979Z,9.68
2019-03-21T18:35:03.378Z,13.10
2019-03-21T18:37:35.685Z,12.43
2019-03-21T18:40:10.092Z,8.65
2019-03-21T18:42:42.437Z,7.58
2019-03-21T18:45:14.945Z,8.05
2019-03-21T18:47:47.853Z,8.93
2019-03-21T18:50:19.925Z,9.15
2019-03-21T18:52:52.571Z,9.05
2019-03-21T18:55:24.785Z,16.25
2019-03-21T18:57:56.915Z,12.13
2019-03-21T19:00:29.204Z,16.85
2019-03-21T19:03:01.721Z,12.47
2019-03-21T19:05:33.919Z,9.25
2019-03-21T19:08:07.072Z,9.75
2019-03-21T19:10:39.396Z,7.83
2019-03-21T19:13:11.672Z,9.30
2019-03-21T19:15:43.496Z,9.68
2019-03-21T19:18:15.844Z,8.38
2019-03-21T19:20:47.931Z,8.68
2019-03-21T19:23:20.454Z,9.43
2019-03-21T19:25:52.588Z,9.48
2019-03-21T19:28:24.739Z,9.70
2019-03-21T19:30:56.828Z,8.68
2019-03-21T19:33:28.960Z,9.58
2019-03-21T19:36:01.203Z,9.63
2019-03-21T19:38:33.808Z,10.60
2019-03-21T19:41:06.348Z,9.53
2019-03-21T19:43:38.508Z,9.68
2019-03-21T19:46:10.608Z,10.53
2019-03-21T19:48:50.213Z,9.23
2019-03-21T19:51:16.672Z,8.45
2019-03-21T19:53:48.886Z,8.55
2019-03-21T19:56:21.044Z,9.05
2019-03-21T19:58:53.239Z,9.20
2019-03-21T20:01:25.347Z,9.28
2019-03-21T20:03:57.335Z,9.45
2019-03-21T20:06:33.938Z,9.73
2019-03-21T20:09:07.676Z,11.00
2019-03-21T20:11:41.636Z,8.50
2019-03-21T20:14:14.003Z,10.35
2019-03-21T20:16:46.291Z,9.23
2019-03-21T20:19:19.240Z,9.43
2019-03-21T20:21:51.379Z,10.85
2019-03-21T20:24:23.552Z,10.98
2019-03-21T20:26:55.923Z,9.75
2019-03-21T20:29:28.997Z,9.48
2019-03-21T20:32:01.156Z,10.30
2019-03-21T20:34:33.849Z,11.18
2019-03-21T20:37:05.939Z,9.73
2019-03-21T20:39:38.100Z,9.50
2019-03-21T20:42:10.199Z,12.30
2019-03-21T20:44:42.244Z,10.70
2019-03-21T20:47:14.335Z,10.23
2019-03-21T20:49:46.282Z,9.13
2019-03-21T20:52:18.368Z,10.35
2019-03-21T20:54:50.797Z,10.48
2019-03-21T20:57:23.329Z,10.32
2019-03-21T20:59:55.523Z,9.95
2019-03-21T21:02:27.677Z,11.08
2019-03-21T21:04:59.996Z,9.50
2019-03-21T21:07:32.199Z,10.35
2019-03-21T21:10:04.790Z,9.18
2019-03-21T21:12:36.991Z,9.35
2019-03-21T21:15:09.348Z,9.33
2019-03-21T21:17:43.307Z,9.90
2019-03-21T21:20:16.928Z,10.05
2019-03-21T21:22:48.991Z,10.80
2019-03-21T21:25:20.986Z,13.35
2019-03-21T21:27:54.584Z,9.03
2019-03-21T21:30:26.755Z,10.28
2019-03-21T21:32:59.252Z,9.00
2019-03-21T21:35:31.351Z,9.55
2019-03-21T21:38:05.391Z,9.88
2019-03-21T21:40:37.455Z,9.03
2019-03-21T21:43:09.723Z,10.75
2019-03-21T21:45:41.828Z,10.63
2019-03-21T21:48:13.712Z,9.18
2019-03-21T21:50:46.753Z,11.05
2019-03-21T21:53:18.957Z,9.68
2019-03-21T21:55:51.090Z,10.10
2019-03-21T21:58:23.207Z,11.35
2019-03-21T22:00:55.311Z,9.40
2019-03-21T22:03:27.609Z,10.32
2019-03-21T22:06:00.251Z,9.98
2019-03-21T22:08:32.428Z,11.33
2019-03-21T22:11:05.817Z,10.88
2019-03-21T22:13:38.412Z,10.00
2019-03-21T22:16:10.735Z,9.58
2019-03-21T22:18:43.099Z,10.58
2019-03-21T22:21:15.559Z,10.20
2019-03-21T22:23:48.057Z,10.63
2019-03-21T22:26:29.180Z,10.98
2019-03-21T22:28:53.991Z,10.55
2019-03-21T22:31:25.929Z,11.28
2019-03-21T22:33:58.298Z,11.08
2019-03-21T22:36:30.796Z,10.95
2019-03-21T22:39:03.150Z,10.53
2019-03-21T22:41:37.014Z,11.00
2019-03-21T22:44:09.705Z,9.73
2019-03-21T22:46:42.466Z,11.28
2019-03-21T22:49:14.529Z,10.25
2019-03-21T22:51:46.533Z,10.82
2019-03-21T22:54:18.516Z,10.18
2019-03-21T22:56:50.763Z,10.00
2019-03-21T22:59:23.118Z,10.60
2019-03-21T23:01:55.282Z,11.33
2019-03-21T23:04:27.704Z,11.75
2019-03-21T23:06:59.661Z,11.33
2019-03-21T23:09:32.254Z,11.88
2019-03-21T23:12:04.722Z,11.15
2019-03-21T23:14:36.789Z,10.80
2019-03-21T23:17:08.827Z,11.15
2019-03-21T23:19:40.820Z,11.05
2019-03-21T23:22:12.912Z,11.25
2019-03-21T23:24:44.794Z,11.10
2019-03-21T23:27:16.943Z,11.90
2019-03-21T23:29:49.339Z,11.30
2019-03-21T23:32:21.437Z,11.88
2019-03-21T23:34:53.584Z,10.78
2019-03-21T23:37:26.253Z,12.58
2019-03-21T23:39:58.602Z,12.85
2019-03-21T23:42:30.956Z,11.68
2019-03-21T23:45:03.175Z,10.50
2019-03-21T23:47:35.373Z,10.38
2019-03-21T23:50:08.271Z,10.55
2019-03-21T23:52:40.525Z,10.45
2019-03-21T23:55:12.939Z,11.18
2019-03-21T23:57:45.733Z,10.72
